createdAt,value
2019-05-11T00:01:04.475Z,20.70
2019-05-11T00:03:31.571Z,20.70
2019-05-11T00:05:58.641Z,20.70
2019-05-11T00:08:25.726Z,20.70
2019-05-11T00:10:52.832Z,20.70
2019-05-11T00:13:19.918Z,20.70
2019-05-11T00:15:47.011Z,20.70
2019-05-11T00:18:14.432Z,20.70
2019-05-11T00:20:41.621Z,20.70
2019-05-11T00:23:08.698Z,20.70
2019-05-11T00:25:35.792Z,20.70
2019-05-11T00:28:02.902Z,20.60
2019-05-11T00:30:30.098Z,20.70
2019-05-11T00:32:57.193Z,20.70
2019-05-11T00:35:24.287Z,20.70
2019-05-11T00:37:51.380Z,20.60
2019-05-11T00:40:18.618Z,20.60
2019-05-11T00:42:45.759Z,20.60
2019-05-11T00:45:12.838Z,20.60
2019-05-11T00:47:39.930Z,20.60
2019-05-11T00:50:07.014Z,20.60
2019-05-11T00:52:34.082Z,20.60
2019-05-11T00:55:01.309Z,20.60
2019-05-11T00:57:28.444Z,20.60
2019-05-11T00:59:55.532Z,20.60
2019-05-11T01:02:22.596Z,20.60
2019-05-11T01:04:49.696Z,20.60
2019-05-11T01:07:16.815Z,20.60
2019-05-11T01:09:43.914Z,20.60
2019-05-11T01:12:11.005Z,20.60
2019-05-11T01:14:38.060Z,20.60
2019-05-11T01:17:05.722Z,20.60
2019-05-11T01:19:32.848Z,20.60
2019-05-11T01:21:59.909Z,20.60
2019-05-11T01:24:27.000Z,20.60
2019-05-11T01:26:54.064Z,20.60
2019-05-11T01:29:21.160Z,20.60
2019-05-11T01:31:48.224Z,20.60
2019-05-11T01:34:15.338Z,20.60
2019-05-11T01:36:42.436Z,20.60
2019-05-11T01:39:09.538Z,20.60
2019-05-11T01:41:36.690Z,20.60
2019-05-11T01:44:03.783Z,20.60
2019-05-11T01:46:30.871Z,20.50
2019-05-11T01:48:57.966Z,20.60
2019-05-11T01:51:25.062Z,20.50
2019-05-11T01:53:52.132Z,20.60
2019-05-11T01:56:19.228Z,20.60
2019-05-11T01:58:46.312Z,20.60
2019-05-11T02:01:13.402Z,20.60
2019-05-11T02:03:40.467Z,20.60
2019-05-11T02:06:07.564Z,20.60
2019-05-11T02:08:34.629Z,20.60
2019-05-11T02:11:14.837Z,20.60
2019-05-11T02:13:30.501Z,20.60
2019-05-11T02:15:57.560Z,20.50
2019-05-11T02:18:24.663Z,20.50
2019-05-11T02:20:51.733Z,20.50
2019-05-11T02:23:18.857Z,20.50
2019-05-11T02:25:45.948Z,20.50
2019-05-11T02:28:13.007Z,20.60
2019-05-11T02:30:40.102Z,20.60
2019-05-11T02:33:07.198Z,20.60
2019-05-11T02:35:34.308Z,20.60
2019-05-11T02:38:01.437Z,20.60
2019-05-11T02:40:28.497Z,20.60
2019-05-11T02:42:55.604Z,20.60
2019-05-11T02:45:22.701Z,20.70
2019-05-11T02:47:49.773Z,20.70
2019-05-11T02:50:16.864Z,20.70
2019-05-11T02:52:43.934Z,20.70
2019-05-11T02:55:11.022Z,20.70
2019-05-11T02:57:38.135Z,20.70
2019-05-11T03:00:05.237Z,20.80
2019-05-11T03:02:32.321Z,20.80
2019-05-11T03:04:59.438Z,20.80
2019-05-11T03:07:26.510Z,20.80
2019-05-11T03:09:53.582Z,20.80
2019-05-11T03:12:22.246Z,20.80
2019-05-11T03:14:49.317Z,20.80
2019-05-11T03:17:16.657Z,20.80
2019-05-11T03:19:43.969Z,20.80
2019-05-11T03:22:11.063Z,20.90
2019-05-11T03:24:38.878Z,20.90
2019-05-11T03:27:05.982Z,20.90
2019-05-11T03:29:33.029Z,20.90
2019-05-11T03:32:00.212Z,20.90
2019-05-11T03:34:27.289Z,20.90
2019-05-11T03:36:54.393Z,20.90
2019-05-11T03:39:21.453Z,20.90
2019-05-11T03:41:48.509Z,20.90
2019-05-11T03:44:15.626Z,20.90
2019-05-11T03:46:42.754Z,20.90
2019-05-11T03:49:09.978Z,20.90
2019-05-11T03:51:37.865Z,20.90
2019-05-11T03:54:04.930Z,20.90
2019-05-11T03:56:32.100Z,20.90
2019-05-11T03:59:01.743Z,20.90
2019-05-11T04:01:31.227Z,20.90
2019-05-11T04:03:58.382Z,20.90
2019-05-11T04:06:25.457Z,20.90
2019-05-11T04:08:52.545Z,20.90
2019-05-11T04:11:19.631Z,20.90
2019-05-11T04:13:46.695Z,20.90
2019-05-11T04:16:13.787Z,20.90
2019-05-11T04:18:40.855Z,20.90
2019-05-11T04:21:07.970Z,20.90
2019-05-11T04:23:35.027Z,20.90
2019-05-11T04:26:02.132Z,20.90
2019-05-11T04:28:29.245Z,20.90
2019-05-11T04:30:56.314Z,20.90
2019-05-11T04:33:23.456Z,20.90
2019-05-11T04:35:50.554Z,20.90
2019-05-11T04:38:17.636Z,21.00
2019-05-11T04:40:44.784Z,20.90
2019-05-11T04:43:11.855Z,20.90
2019-05-11T04:45:38.953Z,21.00
2019-05-11T04:48:06.147Z,20.90
2019-05-11T04:50:33.238Z,21.00
2019-05-11T04:53:00.429Z,21.00
2019-05-11T04:55:27.645Z,21.00
2019-05-11T04:57:54.753Z,21.00
2019-05-11T05:00:21.825Z,20.90
2019-05-11T05:02:48.926Z,21.00
2019-05-11T05:05:16.344Z,21.00
2019-05-11T05:07:49.049Z,21.00
2019-05-11T05:10:14.123Z,20.90
2019-05-11T05:12:40.928Z,21.00
2019-05-11T05:15:08.011Z,21.00
2019-05-11T05:17:35.115Z,21.00
2019-05-11T05:20:02.174Z,20.90
2019-05-11T05:22:29.247Z,20.90
2019-05-11T05:24:56.340Z,20.90
2019-05-11T05:27:23.432Z,20.90
2019-05-11T05:29:50.518Z,20.90
2019-05-11T05:32:17.796Z,20.90
2019-05-11T05:34:44.875Z,20.90
2019-05-11T05:37:11.938Z,20.90
2019-05-11T05:39:47.451Z,20.90
2019-05-11T05:42:12.390Z,20.90
2019-05-11T05:44:39.501Z,20.90
2019-05-11T05:47:06.909Z,20.90
2019-05-11T05:49:33.983Z,20.90
2019-05-11T05:52:01.063Z,20.90
2019-05-11T05:54:28.325Z,20.90
2019-05-11T05:56:55.388Z,20.90
2019-05-11T05:59:22.703Z,20.90
2019-05-11T06:01:49.787Z,20.90
2019-05-11T06:04:16.887Z,20.90
2019-05-11T06:06:43.957Z,20.90
2019-05-11T06:09:11.055Z,20.90
2019-05-11T06:11:38.151Z,20.90
2019-05-11T06:14:05.196Z,20.90
2019-05-11T06:16:32.329Z,20.90
2019-05-11T06:18:59.525Z,20.90
2019-05-11T06:21:26.686Z,20.90
2019-05-11T06:23:56.184Z,20.90
2019-05-11T06:26:23.269Z,21.00
2019-05-11T06:28:50.342Z,21.00
2019-05-11T06:31:17.528Z,21.00
2019-05-11T06:33:44.587Z,21.00
2019-05-11T06:36:11.686Z,21.10
2019-05-11T06:38:38.783Z,21.10
2019-05-11T06:41:05.848Z,21.10
2019-05-11T06:43:32.944Z,21.10
2019-05-11T06:46:00.123Z,21.10
2019-05-11T06:48:27.240Z,21.10
2019-05-11T06:50:54.405Z,21.20
2019-05-11T06:53:21.495Z,21.20
2019-05-11T06:55:48.581Z,21.20
2019-05-11T06:58:15.731Z,21.20
2019-05-11T07:00:42.818Z,21.20
2019-05-11T07:03:09.879Z,21.20
2019-05-11T07:05:36.978Z,21.20
2019-05-11T07:08:04.111Z,21.20
2019-05-11T07:10:31.214Z,21.20
2019-05-11T07:12:58.289Z,21.20
2019-05-11T07:15:25.352Z,21.30
2019-05-11T07:17:52.586Z,21.20
2019-05-11T07:20:19.756Z,21.20
2019-05-11T07:22:46.813Z,21.20
2019-05-11T07:25:13.909Z,21.30
2019-05-11T07:27:41.024Z,21.40
2019-05-11T07:30:08.175Z,21.50
2019-05-11T07:32:35.260Z,21.50
2019-05-11T07:35:02.363Z,21.40
2019-05-11T07:37:29.452Z,21.40
2019-05-11T07:39:58.019Z,21.40
2019-05-11T07:42:25.290Z,21.40
2019-05-11T07:44:52.422Z,21.40
2019-05-11T07:47:19.491Z,21.40
2019-05-11T07:49:48.683Z,21.40
2019-05-11T07:52:15.372Z,21.40
2019-05-11T07:54:42.470Z,21.30
2019-05-11T07:57:09.580Z,21.30
2019-05-11T07:59:38.204Z,21.30
2019-05-11T08:02:05.618Z,21.30
2019-05-11T08:04:32.881Z,21.30
2019-05-11T08:06:59.948Z,21.40
2019-05-11T08:09:27.792Z,21.30
2019-05-11T08:11:55.201Z,21.30
2019-05-11T08:14:22.280Z,21.30
2019-05-11T08:16:49.364Z,21.40
2019-05-11T08:19:18.578Z,21.40
2019-05-11T08:21:45.247Z,21.40
2019-05-11T08:24:12.358Z,21.30
2019-05-11T08:26:39.514Z,21.30
2019-05-11T08:29:08.083Z,21.30
2019-05-11T08:31:35.528Z,21.30
2019-05-11T08:34:02.836Z,21.30
2019-05-11T08:36:30.112Z,21.30
2019-05-11T08:38:58.553Z,21.20
2019-05-11T08:41:28.017Z,21.20
2019-05-11T08:43:54.796Z,21.20
2019-05-11T08:46:21.859Z,21.30
2019-05-11T08:48:48.947Z,21.30
2019-05-11T08:51:18.374Z,21.30
2019-05-11T08:53:44.810Z,21.20
2019-05-11T08:56:13.347Z,21.20
2019-05-11T08:58:40.574Z,21.20
2019-05-11T09:01:08.832Z,21.20
2019-05-11T09:03:38.559Z,21.20
2019-05-11T09:06:04.896Z,21.20
2019-05-11T09:08:31.960Z,21.20
2019-05-11T09:10:59.016Z,21.20
2019-05-11T09:13:27.906Z,21.20
2019-05-11T09:15:54.948Z,21.30
2019-05-11T09:18:22.076Z,21.30
2019-05-11T09:20:49.238Z,21.30
2019-05-11T09:23:32.967Z,21.20
2019-05-11T09:25:47.565Z,21.20
2019-05-11T09:28:13.916Z,21.20
2019-05-11T09:30:40.979Z,21.20
2019-05-11T09:33:08.560Z,21.20
2019-05-11T09:35:49.635Z,21.30
2019-05-11T09:38:04.767Z,21.30
2019-05-11T09:40:31.861Z,21.30
2019-05-11T09:42:59.028Z,21.30
2019-05-11T09:45:27.796Z,21.30
2019-05-11T09:47:55.072Z,21.30
2019-05-11T09:50:22.188Z,21.30
2019-05-11T09:52:49.317Z,21.30
2019-05-11T09:55:18.785Z,21.30
2019-05-11T09:57:45.255Z,21.30
2019-05-11T10:00:12.320Z,21.30
2019-05-11T10:02:39.425Z,21.30
2019-05-11T10:05:08.238Z,21.30
2019-05-11T10:07:35.312Z,21.30
2019-05-11T10:10:04.087Z,21.30
2019-05-11T10:12:31.161Z,21.30
2019-05-11T10:14:59.117Z,21.30
2019-05-11T10:17:28.655Z,21.30
2019-05-11T10:19:55.255Z,21.30
2019-05-11T10:22:22.367Z,21.30
2019-05-11T10:24:49.451Z,21.30
2019-05-11T10:27:18.711Z,21.30
2019-05-11T10:29:45.303Z,21.30
2019-05-11T10:32:12.721Z,21.30
2019-05-11T10:34:39.793Z,21.30
2019-05-11T10:37:08.541Z,21.30
2019-05-11T10:39:38.175Z,21.30
2019-05-11T10:42:04.515Z,21.30
2019-05-11T10:44:31.600Z,21.20
2019-05-11T10:46:59.042Z,21.20
2019-05-11T10:49:28.637Z,21.20
2019-05-11T10:51:55.237Z,21.20
2019-05-11T10:54:22.385Z,21.20
2019-05-11T10:56:49.475Z,21.20
2019-05-11T10:59:18.847Z,21.20
2019-05-11T11:01:45.625Z,21.30
2019-05-11T11:04:12.731Z,21.20
2019-05-11T11:06:39.809Z,21.30
2019-05-11T11:09:08.274Z,21.30
2019-05-11T11:11:37.658Z,21.30
2019-05-11T11:14:04.500Z,21.30
2019-05-11T11:16:38.835Z,21.30
2019-05-11T11:19:00.400Z,21.30
2019-05-11T11:21:27.986Z,21.30
2019-05-11T11:23:55.275Z,21.30
2019-05-11T11:26:22.408Z,21.30
2019-05-11T11:28:49.495Z,21.30
2019-05-11T11:31:18.723Z,21.30
2019-05-11T11:33:45.395Z,21.30
2019-05-11T11:36:12.586Z,21.30
2019-05-11T11:38:39.663Z,21.30
2019-05-11T11:41:07.613Z,21.30
2019-05-11T11:43:34.994Z,21.30
2019-05-11T11:46:02.082Z,21.30
2019-05-11T11:48:29.139Z,21.30
2019-05-11T11:50:59.495Z,21.30
2019-05-11T11:53:27.952Z,21.20
2019-05-11T11:55:58.742Z,21.30
2019-05-11T11:58:24.530Z,21.30
2019-05-11T12:00:51.742Z,21.30
2019-05-11T12:03:18.880Z,21.30
2019-05-11T12:05:47.750Z,21.20
2019-05-11T12:08:14.788Z,21.20
2019-05-11T12:10:41.969Z,21.20
2019-05-11T12:13:09.062Z,21.20
2019-05-11T12:15:38.345Z,21.30
2019-05-11T12:18:08.091Z,21.30
2019-05-11T12:20:34.472Z,21.20
2019-05-11T12:23:01.717Z,21.30
2019-05-11T12:25:31.139Z,21.30
2019-05-11T12:27:58.284Z,21.30
2019-05-11T12:30:25.444Z,21.30
2019-05-11T12:32:52.519Z,21.20
2019-05-11T12:35:19.610Z,21.20
2019-05-11T12:37:48.441Z,21.30
2019-05-11T12:40:17.824Z,21.20
2019-05-11T12:42:44.253Z,21.30
2019-05-11T12:45:11.319Z,21.20
2019-05-11T12:47:38.656Z,21.30
2019-05-11T12:50:07.952Z,21.30
2019-05-11T12:52:34.892Z,21.30
2019-05-11T12:55:02.062Z,21.30
2019-05-11T12:57:29.555Z,21.30
2019-05-11T12:59:58.266Z,21.30
2019-05-11T13:02:27.467Z,21.30
2019-05-11T13:04:54.469Z,21.30
2019-05-11T13:07:21.668Z,21.30
2019-05-11T13:09:48.881Z,21.30
2019-05-11T13:12:16.021Z,21.30
2019-05-11T13:14:43.116Z,21.30
2019-05-11T13:17:11.003Z,21.30
2019-05-11T13:19:38.603Z,21.30
2019-05-11T13:22:07.825Z,21.30
2019-05-11T13:24:34.768Z,21.30
2019-05-11T13:27:01.862Z,21.30
2019-05-11T13:29:29.169Z,21.30
2019-05-11T13:31:56.330Z,21.30
2019-05-11T13:34:23.565Z,21.30
2019-05-11T13:36:50.644Z,21.30
2019-05-11T18:00:28.846Z,21.10
2019-05-11T18:02:58.197Z,21.20
2019-05-11T18:05:24.716Z,21.10
2019-05-11T18:07:51.803Z,21.10
2019-05-11T18:10:18.865Z,21.10
2019-05-11T18:12:48.309Z,21.10
2019-05-11T18:15:14.925Z,21.10
2019-05-11T18:17:42.025Z,21.10
2019-05-11T18:20:16.842Z,21.10
2019-05-11T18:22:39.105Z,21.10
2019-05-11T18:25:08.641Z,21.10
2019-05-11T18:27:35.355Z,21.10
2019-05-11T18:30:02.445Z,21.10
2019-05-11T18:32:32.281Z,21.10
2019-05-11T18:34:59.379Z,21.10
2019-05-11T18:37:28.069Z,21.10
2019-05-11T18:39:55.527Z,21.20
2019-05-11T18:42:22.594Z,21.20
2019-05-11T18:44:49.653Z,21.20
2019-05-11T18:47:18.396Z,21.20
2019-05-11T18:49:48.333Z,21.20
2019-05-11T18:52:14.593Z,21.20
2019-05-11T18:54:41.705Z,21.20
2019-05-11T18:57:08.843Z,21.20
2019-05-11T18:59:37.843Z,21.20
2019-05-11T19:02:04.878Z,21.20
2019-05-11T19:04:32.147Z,21.20
2019-05-11T19:07:12.811Z,21.20
2019-05-11T19:09:28.411Z,21.20
2019-05-11T19:11:57.730Z,21.20
2019-05-11T19:14:24.529Z,21.20
2019-05-11T19:16:51.631Z,21.20
2019-05-11T19:19:18.771Z,21.20
2019-05-11T19:21:48.039Z,21.20
2019-05-11T19:24:14.635Z,21.20
2019-05-11T19:26:41.736Z,21.20
2019-05-11T19:29:09.094Z,21.20
2019-05-11T19:31:38.445Z,21.20
2019-05-11T19:34:05.187Z,21.20
2019-05-11T19:36:32.296Z,21.10
2019-05-11T19:38:59.352Z,21.20
2019-05-11T19:41:27.894Z,21.10
2019-05-11T19:43:57.314Z,21.20
2019-05-11T19:46:23.936Z,21.10
2019-05-11T19:48:52.628Z,21.20
2019-05-11T19:51:19.683Z,21.10
2019-05-11T19:53:48.406Z,21.20
2019-05-11T19:56:15.618Z,21.20
2019-05-11T19:58:42.726Z,21.30
2019-05-11T20:01:09.815Z,21.30
2019-05-11T20:03:37.889Z,21.30
2019-05-11T20:06:05.108Z,21.30
2019-05-11T20:08:32.210Z,21.30
2019-05-11T20:10:59.510Z,21.40
2019-05-11T20:13:28.381Z,21.40
2019-05-11T20:15:57.656Z,21.40
2019-05-11T20:18:24.477Z,21.40
2019-05-11T20:20:51.688Z,21.40
2019-05-11T20:23:18.988Z,21.50
2019-05-11T20:25:47.806Z,21.50
2019-05-11T20:28:15.064Z,21.50
2019-05-11T20:30:42.373Z,21.50
2019-05-11T20:33:09.463Z,21.50
2019-05-11T20:35:38.312Z,21.50
2019-05-11T20:38:05.529Z,21.50
2019-05-11T20:40:32.587Z,21.50
2019-05-11T20:43:00.020Z,21.60
2019-05-11T20:45:28.544Z,21.60
2019-05-11T20:47:56.000Z,21.60
2019-05-11T20:50:23.414Z,21.60
2019-05-11T20:52:50.539Z,21.60
2019-05-11T20:55:18.414Z,21.60
2019-05-11T20:57:48.087Z,21.60
2019-05-11T21:00:15.806Z,21.70
2019-05-11T21:02:43.015Z,21.70
2019-05-11T21:05:10.084Z,21.70
2019-05-11T21:07:38.931Z,21.60
2019-05-11T21:10:08.334Z,21.70
2019-05-11T21:12:34.836Z,21.70
2019-05-11T21:15:01.899Z,21.70
2019-05-11T21:17:29.051Z,21.70
2019-05-11T21:19:56.176Z,21.70
2019-05-11T21:22:23.359Z,21.70
2019-05-11T21:24:50.500Z,21.70
2019-05-11T21:27:19.943Z,21.70
2019-05-11T21:29:48.949Z,21.70
2019-05-11T21:32:15.479Z,21.70
2019-05-11T21:34:42.630Z,21.60
2019-05-11T21:37:09.701Z,21.60
2019-05-11T21:39:37.941Z,21.60
2019-05-11T21:42:05.147Z,21.60
2019-05-11T21:44:32.439Z,21.60
2019-05-11T21:46:59.694Z,21.60
2019-05-11T21:49:26.863Z,21.60
2019-05-11T21:52:03.950Z,21.60
2019-05-11T21:54:22.878Z,21.60
2019-05-11T21:56:49.946Z,21.60
2019-05-11T21:59:18.387Z,21.60
2019-05-11T22:01:48.367Z,21.50
2019-05-11T22:04:14.631Z,21.60
2019-05-11T22:06:41.776Z,21.60
2019-05-11T22:09:08.872Z,21.60
2019-05-11T22:11:38.063Z,21.50
2019-05-11T22:14:04.805Z,21.60
2019-05-11T22:16:32.002Z,21.60
2019-05-11T22:18:59.655Z,21.50
2019-05-11T22:21:28.025Z,21.50
2019-05-11T22:23:55.438Z,21.50
2019-05-11T22:26:22.540Z,21.50
2019-05-11T22:28:49.617Z,21.60
2019-05-11T22:31:18.321Z,21.50
2019-05-11T22:33:47.897Z,21.60
2019-05-11T22:36:14.419Z,21.50
2019-05-11T22:38:41.490Z,21.60
2019-05-11T22:41:09.123Z,21.50
2019-05-11T22:43:37.868Z,21.50
2019-05-11T22:46:05.420Z,21.50
2019-05-11T22:48:35.308Z,21.50
2019-05-11T22:51:04.168Z,21.50
2019-05-11T22:53:43.712Z,21.50
2019-05-11T22:56:09.939Z,21.50
2019-05-11T22:58:41.987Z,21.40
2019-05-11T23:01:10.384Z,21.40
2019-05-11T23:03:38.314Z,21.40
2019-05-11T23:06:05.810Z,21.50
2019-05-11T23:08:33.168Z,21.50
2019-05-11T23:11:10.295Z,21.50
2019-05-11T23:13:38.239Z,21.40
2019-05-11T23:16:05.909Z,21.40
2019-05-11T23:18:39.646Z,21.40
2019-05-11T23:23:59.687Z,21.40
2019-05-11T23:26:28.271Z,21.40
2019-05-11T23:29:14.365Z,21.40
2019-05-11T23:31:41.721Z,21.50
2019-05-11T23:34:09.391Z,21.50
2019-05-11T23:36:38.299Z,21.50
2019-05-11T23:39:05.730Z,21.50
2019-05-11T23:42:22.145Z,21.50
2019-05-11T23:44:04.229Z,21.50
